createdAt,value
2019-04-24T00:04:17.290Z,0.68
2019-04-24T00:06:48.308Z,0.60
2019-04-24T00:14:31.616Z,0.75
2019-04-24T00:17:01.312Z,0.60
2019-04-24T00:19:23.687Z,0.50
2019-04-24T00:24:25.613Z,0.57
2019-04-24T00:26:47.578Z,0.60
2019-04-24T00:29:20.935Z,0.60
2019-04-24T00:39:34.840Z,0.50
2019-04-24T00:41:58.703Z,0.50
2019-04-24T00:44:16.914Z,0.50
2019-04-24T00:49:21.934Z,0.50
2019-04-24T00:54:15.058Z,0.60
2019-04-24T01:01:54.328Z,0.68
2019-04-24T01:04:54.439Z,0.50
2019-04-24T01:07:19.714Z,0.68
2019-04-24T01:09:39.019Z,0.60
2019-04-24T01:12:10.334Z,0.50
2019-04-24T01:14:55.534Z,0.50
2019-04-24T01:17:12.789Z,0.70
2019-04-24T01:19:29.578Z,0.53
2019-04-24T01:22:19.415Z,0.50
2019-04-24T01:26:52.497Z,0.50
2019-04-24T01:29:26.125Z,0.60
2019-04-24T01:31:55.501Z,0.40
2019-04-24T01:37:12.289Z,0.50
2019-04-24T01:42:16.331Z,0.57
2019-04-24T01:44:35.457Z,0.50
2019-04-24T01:47:06.381Z,0.50
2019-04-24T01:49:44.165Z,0.40
2019-04-24T01:52:18.496Z,0.50
2019-04-24T01:54:33.473Z,0.50
2019-04-24T01:56:57.154Z,0.50
2019-04-24T01:59:33.268Z,0.50
2019-04-24T02:01:56.978Z,0.60
2019-04-24T02:04:26.776Z,0.50
2019-04-24T02:07:01.093Z,0.60
2019-04-24T02:09:37.028Z,0.50
2019-04-24T02:12:11.686Z,0.40
2019-04-24T02:14:40.884Z,0.50
2019-04-24T02:17:12.263Z,0.50
2019-04-24T02:19:33.261Z,0.40
2019-04-24T02:22:02.102Z,0.45
2019-04-24T02:26:55.274Z,0.40
2019-04-24T02:29:35.686Z,0.55
2019-04-24T02:32:12.718Z,0.50
2019-04-24T02:47:41.949Z,0.60
2019-04-24T03:02:47.301Z,0.50
2019-04-24T03:20:23.180Z,0.60
2019-04-24T03:22:34.944Z,0.60
2019-04-24T03:27:53.830Z,0.50
2019-04-24T03:30:27.746Z,0.53
2019-04-24T03:48:07.903Z,0.70
2019-04-24T03:58:39.754Z,0.50
2019-04-24T04:03:24.691Z,0.60
2019-04-24T04:05:33.147Z,0.60
2019-04-24T04:08:32.022Z,0.60
2019-04-24T04:13:34.056Z,0.60
2019-04-24T04:15:40.561Z,0.60
2019-04-24T04:18:28.164Z,0.60
2019-04-24T04:25:58.379Z,0.80
2019-04-24T04:28:33.451Z,0.60
2019-04-24T04:31:02.487Z,0.60
2019-04-24T04:33:54.247Z,0.60
2019-04-24T04:36:06.160Z,0.50
2019-04-24T04:49:08.149Z,0.60
2019-04-24T05:06:47.953Z,1.10
2019-04-24T05:09:37.091Z,0.80
2019-04-24T05:21:49.129Z,0.90
2019-04-24T05:24:09.951Z,1.00
2019-04-24T05:31:59.938Z,0.80
2019-04-24T05:36:57.709Z,0.60
2019-04-24T05:39:44.707Z,0.70
2019-04-24T05:41:55.540Z,0.60
2019-04-24T05:49:38.333Z,0.70
2019-04-24T05:54:49.451Z,0.80
2019-04-24T06:00:14.581Z,0.50
2019-04-24T06:02:48.485Z,0.70
2019-04-24T06:05:04.313Z,0.80
2019-04-24T06:15:26.144Z,0.80
2019-04-24T06:18:03.124Z,0.82
2019-04-24T06:20:53.342Z,0.60
2019-04-24T06:23:00.011Z,0.70
2019-04-24T06:25:47.074Z,0.80
2019-04-24T06:28:11.280Z,0.70
2019-04-24T06:30:39.331Z,0.60
2019-04-24T06:32:53.607Z,0.70
2019-04-24T06:38:02.898Z,0.70
2019-04-24T06:40:58.885Z,0.60
2019-04-24T06:45:51.124Z,0.60
2019-04-24T06:48:21.035Z,0.62
2019-04-24T06:53:11.601Z,0.50
2019-04-24T06:55:51.290Z,0.70
2019-04-24T06:58:12.194Z,0.60
2019-04-24T07:00:58.823Z,0.70
2019-04-24T07:09:14.028Z,0.60
2019-04-24T07:17:02.829Z,0.60
2019-04-24T07:19:26.181Z,0.70
2019-04-24T07:24:33.055Z,0.95
2019-04-24T07:26:52.420Z,0.80
2019-04-24T07:37:03.402Z,0.80
2019-04-24T07:39:50.427Z,0.70
2019-04-24T07:44:43.929Z,0.70
2019-04-24T07:47:16.859Z,0.90
2019-04-24T07:49:46.590Z,0.80
2019-04-24T08:00:03.588Z,0.60
2019-04-24T08:05:02.932Z,0.70
2019-04-24T08:07:45.501Z,0.70
2019-04-24T08:10:27.845Z,0.93
2019-04-24T08:15:25.421Z,0.95
2019-04-24T08:18:03.706Z,0.70
2019-04-24T08:20:43.351Z,0.80
2019-04-24T08:22:50.407Z,1.35
2019-04-24T08:25:24.809Z,0.98
2019-04-24T08:30:30.044Z,0.78
2019-04-24T08:32:47.032Z,0.80
2019-04-24T08:35:35.749Z,1.25
2019-04-24T08:40:57.755Z,0.70
2019-04-24T08:45:45.073Z,0.60
2019-04-24T08:53:34.490Z,0.80
2019-04-24T08:55:56.338Z,0.60
2019-04-24T09:01:06.250Z,0.70
2019-04-24T09:11:51.347Z,0.80
2019-04-24T09:14:07.064Z,0.72
2019-04-24T09:16:52.048Z,0.80
2019-04-24T09:21:40.566Z,0.70
2019-04-24T09:27:06.343Z,1.00
2019-04-24T09:29:42.326Z,0.70
2019-04-24T09:32:13.299Z,0.70
2019-04-24T09:34:26.471Z,1.02
2019-04-24T09:40:06.047Z,0.80
2019-04-24T09:44:51.535Z,0.60
2019-04-24T09:47:15.843Z,1.02
2019-04-24T09:49:43.286Z,0.80
2019-04-24T09:52:08.194Z,0.90
2019-04-24T09:55:00.007Z,1.00
2019-04-24T09:59:41.982Z,0.98
2019-04-24T10:02:31.909Z,0.80
2019-04-24T10:05:12.268Z,1.27
2019-04-24T10:10:17.626Z,1.50
2019-04-24T10:12:47.303Z,1.00
2019-04-24T10:28:02.927Z,1.10
2019-04-24T10:30:43.732Z,1.10
2019-04-24T10:33:15.050Z,1.57
2019-04-24T10:36:06.694Z,1.10
2019-04-24T10:38:40.824Z,1.30
2019-04-24T10:41:09.826Z,1.60
2019-04-24T10:43:47.017Z,1.30
2019-04-24T10:46:21.210Z,1.02
2019-04-24T10:48:53.852Z,1.30
2019-04-24T10:51:36.199Z,1.10
2019-04-24T10:53:53.664Z,1.40
2019-04-24T10:56:23.971Z,1.27
2019-04-24T10:58:48.156Z,1.60
2019-04-24T11:04:01.161Z,1.10
2019-04-24T11:06:28.597Z,0.80
2019-04-24T11:09:10.576Z,1.00
2019-04-24T11:11:41.630Z,1.45
2019-04-24T11:14:13.828Z,1.17
2019-04-24T11:17:11.131Z,1.30
2019-04-24T11:19:30.515Z,1.20
2019-04-24T11:22:08.306Z,1.10
2019-04-24T11:37:30.659Z,1.10
2019-04-24T11:40:31.229Z,1.52
2019-04-24T11:42:43.580Z,1.52
2019-04-24T11:45:37.602Z,1.40
2019-04-24T11:53:24.554Z,1.20
2019-04-24T11:58:39.496Z,2.00
2019-04-24T12:00:59.956Z,2.00
2019-04-24T12:03:38.422Z,1.27
2019-04-24T12:08:52.120Z,1.60
2019-04-24T12:11:26.319Z,1.90
2019-04-24T12:16:39.329Z,1.42
2019-04-24T12:21:50.005Z,1.30
2019-04-24T12:24:06.670Z,1.60
2019-04-24T12:26:31.130Z,1.00
2019-04-24T12:29:07.214Z,1.10
2019-04-24T12:31:43.428Z,1.00
2019-04-24T12:33:59.998Z,1.20
2019-04-24T12:36:48.573Z,1.27
2019-04-24T12:39:14.393Z,1.20
2019-04-24T12:49:11.512Z,1.02
2019-04-24T12:56:58.297Z,1.17
2019-04-24T12:59:19.567Z,1.02
2019-04-24T13:01:51.220Z,1.10
2019-04-24T13:08:00.171Z,1.07
2019-04-24T13:13:09.435Z,0.90
2019-04-24T13:15:38.171Z,1.00
2019-04-24T13:18:15.198Z,1.20
2019-04-24T13:20:17.754Z,0.90
2019-04-24T13:22:49.312Z,0.98
2019-04-24T13:25:43.429Z,0.90
2019-04-24T13:28:39.571Z,1.00
2019-04-24T13:36:06.302Z,1.10
2019-04-24T13:38:29.706Z,1.20
2019-04-24T13:46:03.509Z,1.30
2019-04-24T13:48:54.531Z,1.27
2019-04-24T13:50:58.315Z,1.32
2019-04-24T13:53:41.119Z,1.50
2019-04-24T13:55:58.347Z,1.27
2019-04-24T14:06:18.341Z,1.30
2019-04-24T14:08:46.551Z,1.20
2019-04-24T14:13:44.342Z,1.10
2019-04-24T14:18:36.079Z,1.17
2019-04-24T14:21:11.209Z,1.20
2019-04-24T14:23:59.879Z,1.30
2019-04-24T14:28:47.067Z,2.00
2019-04-24T14:31:11.911Z,1.70
2019-04-24T14:36:18.541Z,2.20
2019-04-24T14:41:20.470Z,1.90
2019-04-24T14:44:05.511Z,1.72
2019-04-24T14:46:25.067Z,1.57
2019-04-24T14:48:42.004Z,2.10
2019-04-24T14:51:12.276Z,1.90
2019-04-24T14:53:47.398Z,1.90
2019-04-24T14:58:48.094Z,2.05
2019-04-24T15:03:58.010Z,1.90
2019-04-24T15:06:15.592Z,1.70
2019-04-24T15:08:40.625Z,1.80
2019-04-24T15:16:30.562Z,1.60
2019-04-24T15:18:27.265Z,1.90
2019-04-24T15:21:02.267Z,1.60
2019-04-24T15:23:34.716Z,1.53
2019-04-24T15:26:06.844Z,1.90
2019-04-24T15:33:27.876Z,1.55
2019-04-24T15:35:54.476Z,1.80
2019-04-24T15:38:16.914Z,1.60
2019-04-24T15:40:52.625Z,1.82
2019-04-24T15:43:21.387Z,1.50
2019-04-24T15:45:52.960Z,1.50
2019-04-24T15:50:47.359Z,1.40
2019-04-24T15:52:43.657Z,1.80
2019-04-24T15:55:12.369Z,1.70
2019-04-24T15:57:39.774Z,1.90
2019-04-24T16:00:38.170Z,1.82
2019-04-24T16:03:12.901Z,2.00
2019-04-24T16:05:07.756Z,1.95
2019-04-24T16:07:45.690Z,1.60
2019-04-24T16:10:17.037Z,1.50
2019-04-24T16:12:43.888Z,1.90
2019-04-24T16:15:40.549Z,1.90
2019-04-24T16:20:40.066Z,1.70
2019-04-24T16:23:13.668Z,1.50
2019-04-24T16:25:36.552Z,1.55
2019-04-24T16:28:08.170Z,1.40
2019-04-24T16:30:32.942Z,1.90
2019-04-24T16:35:45.064Z,1.92
2019-04-24T16:38:09.539Z,1.70
2019-04-24T16:43:20.168Z,1.65
2019-04-24T16:53:14.205Z,1.60
2019-04-24T16:55:35.879Z,1.90
2019-04-24T17:01:09.753Z,1.60
2019-04-24T17:03:16.127Z,1.40
2019-04-24T17:08:11.085Z,1.32
2019-04-24T17:10:38.010Z,1.70
2019-04-24T17:15:29.602Z,1.57
2019-04-24T17:18:10.535Z,1.67
2019-04-24T17:20:34.336Z,1.70
2019-04-24T17:23:00.636Z,1.50
2019-04-24T17:25:27.845Z,1.90
2019-04-24T17:35:28.991Z,1.70
2019-04-24T17:37:26.678Z,2.40
2019-04-24T17:39:58.503Z,2.10
2019-04-24T17:42:36.302Z,1.70
2019-04-24T17:45:23.953Z,2.10
2019-04-24T17:50:23.230Z,1.82
2019-04-24T17:55:16.814Z,1.75
2019-04-24T17:59:48.235Z,1.67
2019-04-24T18:02:17.487Z,1.50
2019-04-24T18:04:44.431Z,1.70
2019-04-24T18:07:14.551Z,1.75
2019-04-24T18:09:41.883Z,1.80
2019-04-24T18:12:09.089Z,2.10
2019-04-24T18:14:36.100Z,1.72
2019-04-24T18:17:03.043Z,1.70
2019-04-24T18:19:29.988Z,1.80
2019-04-24T18:21:56.932Z,1.60
2019-04-24T18:24:25.822Z,1.60
2019-04-24T18:26:54.609Z,1.72
2019-04-24T18:29:21.608Z,1.90
2019-04-24T18:31:48.601Z,1.70
2019-04-24T18:34:15.545Z,1.95
2019-04-24T18:36:42.489Z,2.20
2019-04-24T18:39:10.242Z,1.82
2019-04-24T18:41:37.606Z,1.60
2019-04-24T18:44:04.920Z,1.65
2019-04-24T18:46:31.904Z,1.70
2019-04-24T18:48:58.952Z,1.67
2019-04-24T18:51:25.899Z,1.57
2019-04-24T18:53:52.842Z,1.72
2019-04-24T18:56:21.255Z,1.57
2019-04-24T18:58:48.368Z,1.50
2019-04-24T19:01:15.516Z,1.47
2019-04-24T19:03:42.459Z,1.80
2019-04-24T19:06:22.355Z,1.30
2019-04-24T19:08:38.396Z,1.60
2019-04-24T19:11:05.340Z,1.50
2019-04-24T19:13:32.489Z,1.60
2019-04-24T19:15:59.540Z,1.40
2019-04-24T19:18:26.892Z,1.40
2019-04-24T19:20:53.835Z,1.47
2019-04-24T19:23:21.357Z,1.60
2019-04-24T19:25:48.644Z,1.60
2019-04-24T19:28:17.045Z,1.20
2019-04-24T19:30:44.376Z,1.60
2019-04-24T19:33:11.733Z,1.35
2019-04-24T19:35:38.675Z,1.90
2019-04-24T19:38:05.566Z,1.40
2019-04-24T19:40:39.615Z,1.40
2019-04-24T19:43:01.520Z,1.10
2019-04-24T19:45:28.495Z,1.02
2019-04-24T19:47:55.463Z,1.30
2019-04-24T19:50:23.085Z,1.10
2019-04-24T19:52:51.381Z,1.30
2019-04-24T19:55:19.742Z,1.27
2019-04-24T19:57:46.845Z,1.10
2019-04-24T20:00:14.835Z,1.12
2019-04-24T20:02:41.707Z,1.10
2019-04-24T20:05:08.649Z,1.10
2019-04-24T20:07:35.436Z,1.30
2019-04-24T20:10:23.556Z,1.00
2019-04-24T20:12:50.690Z,1.22
2019-04-24T20:15:18.456Z,1.30
2019-04-24T20:17:47.594Z,1.30
2019-04-24T20:20:15.093Z,1.10
2019-04-24T20:22:42.087Z,1.10
2019-04-24T20:25:08.933Z,0.80
2019-04-24T20:27:35.833Z,1.20
2019-04-24T20:30:05.973Z,1.20
2019-04-24T20:32:32.917Z,1.20
2019-04-24T20:34:59.761Z,1.30
2019-04-24T20:37:26.604Z,1.30
2019-04-24T20:39:53.916Z,1.20
2019-04-24T20:42:23.063Z,1.55
2019-04-24T20:44:49.354Z,1.65
2019-04-24T20:47:16.274Z,1.25
2019-04-24T20:49:43.105Z,1.30
2019-04-24T20:52:11.182Z,1.10
2019-04-24T20:54:38.208Z,1.00
2019-04-24T20:57:07.912Z,1.07
2019-04-24T20:59:33.693Z,0.90
2019-04-24T21:02:01.938Z,0.80
2019-04-24T21:04:28.764Z,0.80
2019-04-24T21:07:01.801Z,0.70
2019-04-24T21:09:32.355Z,0.90
2019-04-24T21:11:59.400Z,1.32
2019-04-24T21:14:26.740Z,1.75
2019-04-24T21:16:53.780Z,1.80
2019-04-24T21:19:21.347Z,2.47
2019-04-24T21:21:49.255Z,2.50
2019-04-24T21:24:16.442Z,2.58
2019-04-24T21:26:43.573Z,2.10
2019-04-24T21:29:11.727Z,2.50
2019-04-24T21:31:38.711Z,2.65
2019-04-24T21:34:05.680Z,2.50
2019-04-24T21:36:33.214Z,2.75
2019-04-24T21:39:00.262Z,2.60
2019-04-24T21:41:27.290Z,2.00
2019-04-24T21:43:54.189Z,2.37
2019-04-24T21:46:21.391Z,2.62
2019-04-24T21:48:49.222Z,2.40
2019-04-24T21:51:16.073Z,2.20
2019-04-24T21:53:42.921Z,2.30
2019-04-24T21:56:09.773Z,2.12
2019-04-24T21:58:36.572Z,2.40
2019-04-24T22:01:05.319Z,2.07
2019-04-24T22:03:45.901Z,2.30
2019-04-24T22:06:14.501Z,2.43
2019-04-24T22:08:41.347Z,2.20
2019-04-24T22:11:08.393Z,2.00
2019-04-24T22:13:35.434Z,2.15
2019-04-24T22:16:02.622Z,1.85
2019-04-24T22:18:29.570Z,2.20
2019-04-24T22:20:58.192Z,2.00
2019-04-24T22:23:39.043Z,2.02
2019-04-24T22:26:07.842Z,1.50
2019-04-24T22:28:34.635Z,1.70
2019-04-24T22:31:19.873Z,1.47
2019-04-24T22:33:48.546Z,2.00
2019-04-24T22:36:15.640Z,1.72
2019-04-24T22:38:47.056Z,1.30
2019-04-24T22:41:14.808Z,1.47
2019-04-24T22:43:42.138Z,1.75
2019-04-24T22:46:08.998Z,1.50
2019-04-24T22:48:36.613Z,1.50
2019-04-24T22:51:04.393Z,1.57
2019-04-24T22:53:31.196Z,1.50
2019-04-24T22:55:58.081Z,2.00
2019-04-24T22:58:24.971Z,1.40
2019-04-24T23:00:51.793Z,1.92
2019-04-24T23:03:18.636Z,1.50
2019-04-24T23:05:45.438Z,1.62
2019-04-24T23:08:12.724Z,1.50
2019-04-24T23:10:42.831Z,1.10
2019-04-24T23:13:09.661Z,1.47
2019-04-24T23:15:37.178Z,1.40
2019-04-24T23:18:05.016Z,1.30
2019-04-24T23:20:34.273Z,1.60
2019-04-24T23:23:02.857Z,1.32
2019-04-24T23:25:38.158Z,1.50
2019-04-24T23:28:12.740Z,1.00
2019-04-24T23:30:53.316Z,1.25
2019-04-24T23:33:22.259Z,1.40
2019-04-24T23:35:51.112Z,1.30
2019-04-24T23:38:18.505Z,1.70
2019-04-24T23:40:45.328Z,1.40
2019-04-24T23:43:12.164Z,1.60
2019-04-24T23:45:39.109Z,1.30
2019-04-24T23:48:05.901Z,1.20
2019-04-24T23:50:32.784Z,1.30
2019-04-24T23:52:59.642Z,1.62
2019-04-24T23:55:26.480Z,1.70
2019-04-24T23:57:53.265Z,1.10
